Airfield :







YOU CAN JOIN US ON...

 
LOGIN :

Register | Disclaimer

   EN    FR    IT 

 









Legend :    VFR   Marginal VFR   IFR   Intensive IFR   Very Intensive IFR
Visi :
Ceiling :
>= 8 km
>= 3000ft
5 to 8 km
1000 to 3000 ft
1500m to 5 km
500 to 1000 ft
800 to 1500m
200 to 500 ft
< 800m
< 200 ft
Symbols :   Thunderstorms  Fog  Heavy snow  Heavy precipitations  Wind > 20 kt







- Airport Elevation : 787 ft
- IATA code : RUT


KRUT - Rutland - Southern Vermont Regional

CURRENT METAR :
  • 210856Z AUTO 13006KT 10SM CLR 11/10 A3022 RMK AO2 SLP226 T01060100 51005 $

EXPIRED METARs :
  • 210756Z AUTO 15003KT 10SM CLR 11/10 A3021 RMK AO2 SLP224 T01060100 $
  • 210656Z AUTO 14005KT 10SM CLR 11/10 A3021 RMK AO2 SLP224 T01060100 $

TAF KRUT
Valid from the 21 at 06:00 until the 22 at 06:00 UTC


210532Z 2106/2206 13006KT P6SM SKC
FM211300 VRB04KT P6SM SKC
FM220200 13005KT P6SM SKC
No reported NOTAMs for that airfield.



MET'MAP, your aeronautical weather chart ! - Copyright ORBIFLY December 2007 - Disclaimer

ORBIFLY MET'MAP TEAM :

Programming & Development : Alexandra Zaïnal
Concept & Development : Baudouin d'Aumeries
Co-Development & Prog : Marc-Olivier Méhu
Technical & hardware support : Manuel Goepfert

Contact : metmap@orbifly.com




SOURCES & CREDITS :

   NOAA